Time;durP1;ratioP1;P1;durP2;ratioP2;P2;SDS_P1;SDS_P2;PMS_P1;PMS_P2;Temp;Humidity;BMP_temperature;BMP_pressure;BME280_temperature;BME280_humidity;BME280_pressure;Samples;Min_cycle;Max_cycle;Signal;HPM_P1;HPM_P2
2022/03/27 00:00:29;;;;;;;7.05;3.30;;;6.60;99.90;;;;;;5113570;28;20079;-60
2022/03/27 00:02:55;;;;;;;6.90;2.80;;;6.70;99.90;;;;;;5114073;28;20054;-60
2022/03/27 00:05:21;;;;;;;5.30;3.10;;;6.70;99.90;;;;;;5113424;28;20043;-60
2022/03/27 00:07:47;;;;;;;6.22;3.13;;;6.80;99.90;;;;;;5113638;28;20052;-60
2022/03/27 00:10:13;;;;;;;6.60;3.13;;;6.90;99.90;;;;;;5095759;28;20048;-60
2022/03/27 00:12:39;;;;;;;9.63;3.47;;;6.90;99.90;;;;;;5113131;28;20088;-60
2022/03/27 00:15:07;;;;;;;7.90;3.70;;;6.90;99.90;;;;;;5113556;28;20052;-60
2022/03/27 00:17:34;;;;;;;4.85;2.95;;;6.90;99.90;;;;;;5113378;28;20117;-60
2022/03/27 00:20:05;;;;;;;6.75;3.45;;;7.00;99.90;;;;;;5113688;28;20040;-60
2022/03/27 00:22:30;;;;;;;6.93;3.60;;;7.10;99.90;;;;;;5095095;28;20139;-60
2022/03/27 00:24:57;;;;;;;7.68;3.70;;;7.10;99.90;;;;;;5113491;28;20126;-60
2022/03/27 00:27:23;;;;;;;6.43;3.83;;;7.10;99.90;;;;;;5113160;28;20047;-60
2022/03/27 00:29:49;;;;;;;8.07;3.35;;;7.20;99.90;;;;;;5113527;28;20100;-61
2022/03/27 00:32:15;;;;;;;9.25;3.60;;;7.30;99.90;;;;;;5095258;28;20059;-60
2022/03/27 00:34:40;;;;;;;8.68;4.03;;;7.20;99.90;;;;;;5112932;28;20040;-60
2022/03/27 00:37:06;;;;;;;8.20;3.75;;;7.20;99.90;;;;;;5094984;28;20048;-60
2022/03/27 00:39:32;;;;;;;9.55;4.13;;;7.20;99.90;;;;;;5094915;28;20044;-60
2022/03/27 00:41:58;;;;;;;8.65;4.18;;;7.20;99.90;;;;;;5113227;28;20044;-60
2022/03/27 00:44:24;;;;;;;11.65;4.00;;;7.20;99.90;;;;;;5094583;28;20042;-60
2022/03/27 00:46:50;;;;;;;8.32;3.30;;;7.10;99.90;;;;;;5113035;28;20122;-60
2022/03/27 00:49:15;;;;;;;6.93;3.95;;;7.20;99.90;;;;;;5078115;28;20465;-61
2022/03/27 00:51:41;;;;;;;8.10;3.85;;;7.20;99.90;;;;;;5094636;28;20591;-60
2022/03/27 00:54:07;;;;;;;7.75;3.70;;;7.20;99.90;;;;;;5095062;28;20044;-60
2022/03/27 00:56:33;;;;;;;8.75;3.80;;;7.20;99.90;;;;;;5112408;28;20090;-59
2022/03/27 00:58:59;;;;;;;9.30;4.43;;;7.20;99.90;;;;;;5112954;28;20059;-60
2022/03/27 01:01:35;;;;;;;12.05;4.20;;;7.30;99.90;;;;;;5112443;28;20043;-60
2022/03/27 01:04:02;;;;;;;7.68;4.43;;;7.20;99.90;;;;;;5094592;28;20118;-60
2022/03/27 01:06:33;;;;;;;8.32;3.97;;;7.20;99.90;;;;;;5094067;28;20055;-60
2022/03/27 01:11:46;;;;;;;9.02;4.55;;;7.20;99.90;;;;;;5111958;28;20052;-60
2022/03/27 01:14:13;;;;;;;7.28;3.22;;;7.20;99.90;;;;;;5111915;28;20123;-60
2022/03/27 01:16:42;;;;;;;11.90;4.55;;;7.20;99.90;;;;;;5112124;28;20051;-60
2022/03/27 01:19:10;;;;;;;10.57;4.13;;;7.20;99.90;;;;;;5111747;28;20131;-59
2022/03/27 01:21:40;;;;;;;8.30;3.92;;;7.20;99.90;;;;;;5093931;28;20393;-60
2022/03/27 01:24:07;;;;;;;9.10;4.40;;;7.10;99.90;;;;;;5112443;28;20051;-60
2022/03/27 01:26:34;;;;;;;12.23;5.15;;;7.00;99.90;;;;;;5093784;28;20489;-60
2022/03/27 01:29:00;;;;;;;8.23;4.70;;;7.00;99.90;;;;;;5112324;28;20130;-61
2022/03/27 01:31:26;;;;;;;7.82;4.28;;;7.00;99.90;;;;;;5112342;28;20070;-60
2022/03/27 01:33:51;;;;;;;10.52;4.30;;;6.90;99.90;;;;;;5112005;28;20051;-59
2022/03/27 01:36:26;;;;;;;10.70;4.88;;;6.90;99.90;;;;;;5112581;28;20083;-60
2022/03/27 01:38:53;;;;;;;10.60;4.75;;;6.80;99.90;;;;;;5111486;28;20462;-59
2022/03/27 01:41:19;;;;;;;9.27;4.60;;;6.80;99.90;;;;;;5111968;28;20052;-60
2022/03/27 01:43:45;;;;;;;9.65;4.43;;;6.80;99.90;;;;;;5111758;28;20059;-61
2022/03/27 01:46:11;;;;;;;11.05;4.82;;;6.80;99.90;;;;;;5112235;28;20051;-60
2022/03/27 01:48:37;;;;;;;12.10;5.03;;;6.70;99.90;;;;;;5111588;28;20750;-60
2022/03/27 01:51:03;;;;;;;10.90;4.68;;;6.70;99.90;;;;;;5111954;28;20153;-60
2022/03/27 01:53:29;;;;;;;8.50;4.40;;;6.60;99.90;;;;;;5111770;28;20039;-60
2022/03/27 01:55:55;;;;;;;9.68;4.82;;;6.60;99.90;;;;;;5111493;28;20032;-60
2022/03/27 01:58:22;;;;;;;11.75;5.32;;;6.60;99.90;;;;;;5111769;28;20443;-60
2022/03/27 02:00:47;;;;;;;12.55;5.40;;;6.60;99.90;;;;;;5111650;28;20126;-60
2022/03/27 02:03:13;;;;;;;10.48;5.13;;;6.60;99.90;;;;;;5111730;28;20492;-60
2022/03/27 02:05:39;;;;;;;11.90;5.00;;;6.60;99.90;;;;;;5111413;28;20048;-60
2022/03/27 02:08:05;;;;;;;8.27;4.38;;;6.60;99.90;;;;;;5111769;28;20133;-60
2022/03/27 02:10:31;;;;;;;12.43;4.70;;;6.50;99.90;;;;;;5111908;28;20043;-59
2022/03/27 02:12:56;;;;;;;12.98;5.53;;;6.50;99.90;;;;;;5089350;28;20090;-60
2022/03/27 02:15:23;;;;;;;11.55;4.85;;;6.50;99.90;;;;;;5090292;28;20059;-61
2022/03/27 02:17:49;;;;;;;9.57;4.68;;;6.50;99.90;;;;;;5089942;28;20052;-60
2022/03/27 02:20:15;;;;;;;10.68;5.00;;;6.40;99.90;;;;;;5091700;28;20048;-61
2022/03/27 02:22:41;;;;;;;8.45;4.10;;;6.50;99.90;;;;;;5090983;28;20496;-60
2022/03/27 02:25:07;;;;;;;11.40;5.25;;;6.40;99.90;;;;;;5091185;28;20343;-60
2022/03/27 02:27:33;;;;;;;12.27;5.25;;;6.30;99.90;;;;;;5091725;28;20180;-59
2022/03/27 02:29:59;;;;;;;14.13;5.90;;;6.30;99.90;;;;;;5091837;28;20409;-60
2022/03/27 02:32:24;;;;;;;10.20;5.80;;;6.30;99.90;;;;;;5077286;28;20047;-61
2022/03/27 02:34:50;;;;;;;12.15;5.90;;;6.30;99.90;;;;;;5095390;28;20048;-60
2022/03/27 02:37:16;;;;;;;14.57;6.15;;;6.20;99.90;;;;;;5095240;28;20040;-60
2022/03/27 02:39:44;;;;;;;32.97;7.30;;;6.20;99.90;;;;;;5094758;28;20070;-61
2022/03/27 02:42:10;;;;;;;18.65;6.90;;;6.20;99.90;;;;;;5094146;28;20048;-60
2022/03/27 02:44:36;;;;;;;17.42;7.63;;;6.20;99.90;;;;;;5094963;28;20084;-61
2022/03/27 02:47:02;;;;;;;20.67;6.88;;;6.10;99.90;;;;;;5093732;28;20433;-61
2022/03/27 02:49:27;;;;;;;21.92;7.07;;;6.20;99.90;;;;;;5093460;28;20048;-60
2022/03/27 02:51:53;;;;;;;31.95;7.30;;;6.10;99.90;;;;;;5094600;28;20052;-60
2022/03/27 02:54:19;;;;;;;25.63;7.97;;;6.10;99.90;;;;;;5093832;28;20054;-60
2022/03/27 02:56:46;;;;;;;14.68;7.30;;;6.10;99.90;;;;;;5094674;28;20048;-61
2022/03/27 02:59:11;;;;;;;30.35;6.90;;;6.00;99.90;;;;;;5076983;28;20477;-60
2022/03/27 03:01:37;;;;;;;13.23;7.22;;;6.10;99.90;;;;;;5094698;28;20044;-60
2022/03/27 03:04:04;;;;;;;31.63;7.57;;;6.10;99.90;;;;;;5093297;28;20066;-60
2022/03/27 03:06:31;;;;;;;16.92;7.05;;;6.10;99.90;;;;;;5094760;28;20397;-60
2022/03/27 03:08:57;;;;;;;29.55;6.88;;;6.10;99.90;;;;;;5094366;28;20151;-61
2022/03/27 03:11:23;;;;;;;11.30;6.18;;;6.10;99.90;;;;;;5097296;28;20098;-61
2022/03/27 03:13:51;;;;;;;20.65;6.20;;;6.10;99.90;;;;;;5114806;28;20064;-60
2022/03/27 03:16:17;;;;;;;12.05;5.88;;;6.10;99.90;;;;;;5114786;28;20452;-60
2022/03/27 03:18:44;;;;;;;11.55;6.47;;;6.10;99.90;;;;;;5096091;28;20043;-64
2022/03/27 03:21:10;;;;;;;11.32;6.72;;;6.10;99.90;;;;;;5115269;28;20043;-60
2022/03/27 03:23:36;;;;;;;11.93;5.90;;;6.00;99.90;;;;;;5114775;28;20123;-61
2022/03/27 03:26:04;;;;;;;13.77;6.22;;;6.00;99.90;;;;;;5114500;28;20040;-61
2022/03/27 03:28:30;;;;;;;18.98;6.72;;;6.00;99.90;;;;;;5114620;28;20051;-60
2022/03/27 03:30:56;;;;;;;16.85;6.35;;;6.00;99.90;;;;;;5114432;28;20481;-61
2022/03/27 03:33:21;;;;;;;14.90;6.05;;;5.90;99.90;;;;;;5114602;28;20075;-59
2022/03/27 03:35:47;;;;;;;10.57;5.75;;;5.90;99.90;;;;;;5096116;28;20388;-60
2022/03/27 03:38:13;;;;;;;13.43;6.30;;;5.80;99.90;;;;;;5096375;28;20059;-60
2022/03/27 03:40:41;;;;;;;11.57;5.53;;;5.80;99.90;;;;;;5113672;28;20036;-59
2022/03/27 03:43:11;;;;;;;11.15;6.35;;;5.80;99.90;;;;;;5113820;28;20538;-60
2022/03/27 03:45:37;;;;;;;9.18;4.85;;;5.70;99.90;;;;;;5114411;28;20048;-60
2022/03/27 03:48:05;;;;;;;9.23;5.10;;;5.70;99.90;;;;;;5114137;28;20116;-60
2022/03/27 03:50:35;;;;;;;8.48;4.97;;;5.70;99.90;;;;;;5114079;28;20503;-60
2022/03/27 03:53:01;;;;;;;9.80;4.85;;;5.60;99.90;;;;;;5095753;28;20631;-60
2022/03/27 03:55:28;;;;;;;8.13;5.20;;;5.60;99.90;;;;;;5096238;28;20052;-60
2022/03/27 03:57:54;;;;;;;9.20;4.97;;;5.50;99.90;;;;;;5113838;28;20062;-60
2022/03/27 04:00:20;;;;;;;8.82;4.90;;;5.60;99.90;;;;;;5095854;28;20052;-60
2022/03/27 04:02:46;;;;;;;7.90;4.85;;;5.50;99.90;;;;;;5113831;28;20069;-61
2022/03/27 04:05:11;;;;;;;8.20;4.18;;;5.40;99.90;;;;;;5113402;28;20036;-60
2022/03/27 04:07:37;;;;;;;11.15;4.47;;;5.60;99.90;;;;;;5114136;28;20047;-60
2022/03/27 04:10:03;;;;;;;7.13;4.18;;;5.40;99.90;;;;;;5113628;28;20511;-60
2022/03/27 04:12:30;;;;;;;10.60;4.93;;;5.40;99.90;;;;;;5095179;28;20431;-62
2022/03/27 04:14:56;;;;;;;8.25;4.20;;;5.90;99.90;;;;;;5095278;28;20054;-60
2022/03/27 04:17:21;;;;;;;7.10;4.10;;;5.40;99.90;;;;;;5113842;28;20044;-60
2022/03/27 04:19:47;;;;;;;7.22;4.47;;;5.40;99.90;;;;;;5078892;28;20054;-60
2022/03/27 04:22:13;;;;;;;10.82;4.47;;;5.30;99.90;;;;;;5113333;28;20054;-61
2022/03/27 04:24:38;;;;;;;8.50;4.75;;;5.30;99.90;;;;;;5113497;28;20040;-60
2022/03/27 04:27:04;;;;;;;7.68;3.80;;;5.30;99.90;;;;;;5094926;28;20103;-60
2022/03/27 04:29:30;;;;;;;9.82;4.20;;;5.30;99.90;;;;;;5095282;28;20050;-60
2022/03/27 04:31:55;;;;;;;6.85;3.83;;;5.30;99.90;;;;;;5113039;28;20047;-60
2022/03/27 04:34:21;;;;;;;8.68;4.35;;;5.30;99.90;;;;;;5113382;28;20514;-60
2022/03/27 04:36:47;;;;;;;19.67;4.63;;;5.30;99.90;;;;;;5113258;28;20053;-61
2022/03/27 04:39:13;;;;;;;8.60;4.03;;;5.20;99.90;;;;;;5113023;28;20143;-60
2022/03/27 04:41:39;;;;;;;9.63;4.03;;;5.30;99.90;;;;;;5113572;28;20097;-60
2022/03/27 04:44:06;;;;;;;6.97;3.90;;;5.30;99.90;;;;;;5094597;28;20043;-60
2022/03/27 04:46:32;;;;;;;9.18;3.75;;;5.20;99.90;;;;;;5094753;28;20067;-60
2022/03/27 04:48:58;;;;;;;13.85;4.55;;;5.20;99.90;;;;;;5094765;28;20043;-60
2022/03/27 04:51:23;;;;;;;11.35;4.13;;;5.10;99.90;;;;;;5094797;28;20053;-60
2022/03/27 04:53:50;;;;;;;10.65;4.57;;;5.20;99.90;;;;;;5112946;28;20051;-60
2022/03/27 04:56:16;;;;;;;12.55;4.55;;;5.10;99.90;;;;;;5112641;28;20043;-60
2022/03/27 04:58:43;;;;;;;12.02;5.15;;;5.10;99.90;;;;;;5112805;28;20435;-60
2022/03/27 05:01:10;;;;;;;13.77;4.43;;;5.00;99.90;;;;;;5112610;28;20122;-59
2022/03/27 05:03:36;;;;;;;15.43;4.88;;;5.00;99.90;;;;;;5112365;28;20484;-60
2022/03/27 05:06:02;;;;;;;16.60;4.97;;;5.00;99.90;;;;;;5112327;28;20039;-62
2022/03/27 05:08:27;;;;;;;20.38;5.60;;;5.00;99.90;;;;;;5094104;28;20047;-61
2022/03/27 05:10:53;;;;;;;16.90;5.43;;;5.00;99.90;;;;;;5112701;28;20070;-60
2022/03/27 05:13:19;;;;;;;17.60;5.22;;;5.00;99.90;;;;;;5111898;28;20410;-60
2022/03/27 05:15:46;;;;;;;14.93;4.85;;;4.90;99.90;;;;;;5112123;28;20557;-59
2022/03/27 05:18:12;;;;;;;14.80;5.10;;;5.00;99.90;;;;;;5112185;28;20111;-59
2022/03/27 05:20:41;;;;;;;13.88;4.60;;;4.90;99.90;;;;;;5112273;28;20051;-60
2022/03/27 05:23:08;;;;;;;12.20;4.75;;;4.90;99.90;;;;;;5076990;28;20055;-59
2022/03/27 05:25:40;;;;;;;14.32;3.95;;;4.90;99.90;;;;;;5112321;28;20088;-59
2022/03/27 05:28:08;;;;;;;13.13;3.95;;;4.90;99.90;;;;;;5111874;28;20043;-59
2022/03/27 05:30:34;;;;;;;15.10;4.00;;;4.90;99.90;;;;;;5112034;28;20048;-59
2022/03/27 05:33:00;;;;;;;16.63;4.00;;;4.90;99.90;;;;;;5112109;28;20044;-59
2022/03/27 05:35:26;;;;;;;14.43;4.03;;;5.00;99.90;;;;;;5111668;28;20123;-60
2022/03/27 05:37:52;;;;;;;10.02;3.72;;;5.00;99.90;;;;;;5112222;28;20393;-61
2022/03/27 05:40:20;;;;;;;17.55;4.25;;;5.00;99.90;;;;;;5111223;28;20564;-60
2022/03/27 05:42:47;;;;;;;13.70;3.38;;;5.00;99.90;;;;;;5111905;28;20058;-60
2022/03/27 05:45:13;;;;;;;10.90;3.55;;;5.10;99.90;;;;;;5093273;28;20421;-60
2022/03/27 05:47:43;;;;;;;10.35;3.53;;;5.20;99.90;;;;;;5111924;28;20122;-60
2022/03/27 05:50:11;;;;;;;12.50;3.38;;;5.60;99.90;;;;;;5111518;28;20378;-59
2022/03/27 05:52:37;;;;;;;16.35;4.18;;;5.20;99.90;;;;;;5093766;28;20051;-60
2022/03/27 05:55:04;;;;;;;16.05;4.63;;;5.20;99.90;;;;;;5077165;28;20051;-59
2022/03/27 05:57:30;;;;;;;19.08;4.28;;;5.20;99.90;;;;;;5111503;28;20043;-59
2022/03/27 05:59:56;;;;;;;20.45;4.30;;;5.30;99.90;;;;;;5111923;28;20039;-60
2022/03/27 06:02:21;;;;;;;22.17;4.45;;;5.30;99.90;;;;;;5093091;28;20370;-60
2022/03/27 06:04:47;;;;;;;24.30;4.95;;;5.30;99.90;;;;;;5093086;28;20101;-62
2022/03/27 06:07:13;;;;;;;26.27;7.00;;;5.40;99.90;;;;;;5093516;28;20056;-59
2022/03/27 06:09:39;;;;;;;25.60;4.80;;;5.50;99.90;;;;;;5076979;28;20070;-60
2022/03/27 06:12:05;;;;;;;21.52;4.75;;;5.60;99.90;;;;;;5111579;28;20051;-60
2022/03/27 06:14:31;;;;;;;20.27;4.85;;;5.70;99.90;;;;;;5111165;28;20493;-60
2022/03/27 06:16:58;;;;;;;24.92;5.25;;;5.80;99.90;;;;;;5111678;28;20043;-60
2022/03/27 06:19:24;;;;;;;26.48;6.40;;;5.90;99.90;;;;;;5111569;28;20051;-59
2022/03/27 06:21:50;;;;;;;26.00;5.85;;;6.00;99.90;;;;;;5111703;28;20394;-60
2022/03/27 06:24:15;;;;;;;22.02;5.30;;;6.20;99.90;;;;;;5111373;28;20046;-60
2022/03/27 06:26:41;;;;;;;28.30;7.00;;;6.40;99.90;;;;;;5111265;28;20047;-60
2022/03/27 06:29:10;;;;;;;33.10;7.18;;;6.50;99.90;;;;;;5111736;28;20100;-59
2022/03/27 06:31:38;;;;;;;33.70;6.05;;;6.50;99.90;;;;;;5093688;28;20110;-59
2022/03/27 06:34:04;;;;;;;39.25;6.65;;;6.70;99.90;;;;;;5093467;28;20040;-59
2022/03/27 06:36:30;;;;;;;26.63;7.40;;;6.80;99.90;;;;;;5111025;28;20047;-60
2022/03/27 06:38:56;;;;;;;33.47;7.25;;;6.90;99.90;;;;;;5092414;28;20044;-59
2022/03/27 06:41:21;;;;;;;33.47;7.15;;;6.90;99.90;;;;;;5111109;28;20036;-60
2022/03/27 06:43:47;;;;;;;29.77;7.57;;;6.80;99.90;;;;;;5111437;28;20391;-61
2022/03/27 06:46:16;;;;;;;33.63;7.30;;;6.90;99.90;;;;;;5111296;28;20449;-60
2022/03/27 06:48:47;;;;;;;32.47;7.20;;;6.90;99.90;;;;;;5093376;28;20489;-60
2022/03/27 06:51:13;;;;;;;35.38;7.25;;;6.90;99.90;;;;;;5111443;28;20044;-60
2022/03/27 06:53:39;;;;;;;33.83;7.75;;;6.80;99.90;;;;;;5110992;28;20083;-61
2022/03/27 06:56:06;;;;;;;31.33;7.95;;;6.80;99.90;;;;;;5111503;28;20051;-62
2022/03/27 06:58:31;;;;;;;35.05;7.15;;;6.90;99.90;;;;;;5110858;28;20134;-60
2022/03/27 07:03:41;;;;;;;29.65;7.28;;;6.90;99.90;;;;;;5093044;28;20138;-61
2022/03/27 07:06:07;;;;;;;34.63;7.10;;;6.90;99.90;;;;;;5111118;28;20035;-61
2022/03/27 07:08:33;;;;;;;38.28;6.85;;;7.00;99.90;;;;;;5092840;28;20139;-60
2022/03/27 07:10:59;;;;;;;40.97;7.65;;;7.10;99.90;;;;;;5111135;28;20051;-60
2022/03/27 07:13:25;;;;;;;34.42;7.68;;;7.20;99.90;;;;;;5091747;28;20185;-61
2022/03/27 07:15:51;;;;;;;33.92;6.80;;;7.30;99.90;;;;;;5111565;28;20358;-60
2022/03/27 07:18:17;;;;;;;33.42;8.50;;;7.50;99.90;;;;;;5096808;28;20120;-60
2022/03/27 07:20:44;;;;;;;33.13;7.40;;;7.70;99.90;;;;;;5114194;28;20043;-59
2022/03/27 07:23:13;;;;;;;39.55;7.60;;;7.80;99.90;;;;;;5114789;28;20070;-59
2022/03/27 07:25:42;;;;;;;31.20;7.25;;;8.00;99.90;;;;;;5114241;28;20287;-59
2022/03/27 07:28:09;;;;;;;42.40;8.13;;;8.30;99.90;;;;;;5114226;28;20493;-59
2022/03/27 07:30:36;;;;;;;32.50;7.10;;;8.60;99.90;;;;;;5114255;28;20046;-60
2022/03/27 07:33:02;;;;;;;31.80;6.20;;;8.80;99.90;;;;;;5114634;28;20087;-60
2022/03/27 07:35:30;;;;;;;28.50;7.43;;;9.00;99.90;;;;;;5114248;28;20135;-61
2022/03/27 07:37:57;;;;;;;39.83;7.93;;;9.20;99.90;;;;;;5114613;28;20433;-60
2022/03/27 07:40:23;;;;;;;32.83;7.65;;;9.40;99.90;;;;;;5079143;28;20054;-61
2022/03/27 07:42:50;;;;;;;30.40;6.95;;;9.50;99.90;;;;;;5096265;28;20477;-61
2022/03/27 07:45:21;;;;;;;32.70;7.55;;;9.60;99.90;;;;;;5114014;28;20070;-61
2022/03/27 07:47:49;;;;;;;33.67;8.95;;;9.90;99.90;;;;;;5113988;28;20121;-60
2022/03/27 07:50:16;;;;;;;26.10;7.13;;;10.00;99.90;;;;;;5095536;28;20484;-59
2022/03/27 07:52:43;;;;;;;31.23;7.78;;;10.00;99.90;;;;;;5113164;28;20101;-60
2022/03/27 07:55:10;;;;;;;32.53;7.43;;;10.00;99.90;;;;;;5114199;28;20043;-59
2022/03/27 07:57:36;;;;;;;30.33;6.97;;;10.00;99.90;;;;;;5113662;28;20043;-59
2022/03/27 08:00:07;;;;;;;32.45;7.25;;;10.10;99.90;;;;;;5113931;28;20052;-59
2022/03/27 08:02:33;;;;;;;38.47;7.88;;;10.20;99.90;;;;;;5113523;28;20059;-59
2022/03/27 08:04:58;;;;;;;32.00;7.38;;;10.00;99.90;;;;;;5095815;28;20048;-60
2022/03/27 08:07:24;;;;;;;34.13;7.38;;;10.10;99.90;;;;;;5114007;28;20410;-62
2022/03/27 08:09:50;;;;;;;28.33;6.75;;;10.10;99.90;;;;;;5095497;28;20466;-60
2022/03/27 08:12:17;;;;;;;30.63;7.15;;;10.90;99.90;;;;;;5095475;28;20095;-61
2022/03/27 08:14:43;;;;;;;29.65;7.80;;;11.50;99.90;;;;;;5113340;28;20159;-62
2022/03/27 08:17:10;;;;;;;34.45;7.93;;;12.10;99.90;;;;;;5113509;28;20052;-61
2022/03/27 08:19:36;;;;;;;30.30;7.90;;;12.40;99.90;;;;;;5113341;28;20050;-61
2022/03/27 08:22:02;;;;;;;28.38;8.02;;;12.50;99.90;;;;;;5113337;28;20404;-63
2022/03/27 08:24:28;;;;;;;30.58;7.25;;;13.30;99.90;;;;;;5095201;28;20405;-60
2022/03/27 08:26:57;;;;;;;35.65;8.07;;;13.90;99.90;;;;;;5113126;28;20048;-61
2022/03/27 08:29:29;;;;;;;26.15;7.70;;;13.60;99.90;;;;;;5095192;28;20496;-62
2022/03/27 08:31:56;;;;;;;33.47;7.57;;;13.00;99.90;;;;;;5095062;28;20086;-62
2022/03/27 08:34:25;;;;;;;30.45;7.68;;;12.70;99.90;;;;;;5113392;28;20392;-62
2022/03/27 08:36:51;;;;;;;31.30;7.13;;;12.50;99.90;;;;;;5112948;28;20145;-62
2022/03/27 08:39:18;;;;;;;28.80;8.10;;;12.70;99.90;;;;;;5113381;28;20462;-61
2022/03/27 08:41:44;;;;;;;32.65;7.47;;;13.30;99.90;;;;;;5112777;28;20048;-61
2022/03/27 08:44:12;;;;;;;28.08;6.65;;;14.20;99.90;;;;;;5112901;28;20408;-61
2022/03/27 08:46:40;;;;;;;29.90;6.07;;;14.70;99.90;;;;;;5112684;28;20043;-61
2022/03/27 08:49:35;;;;;;;30.88;6.53;;;15.30;99.90;;;;;;5094907;28;20039;-61
2022/03/27 08:52:01;;;;;;;26.20;7.43;;;15.60;99.90;;;;;;5112821;28;20118;-61
2022/03/27 08:54:37;;;;;;;24.25;6.47;;;15.70;99.90;;;;;;5113155;28;20130;-61
2022/03/27 08:57:38;;;;;;;23.67;6.78;;;15.40;99.90;;;;;;5113012;28;20091;-62
2022/03/27 09:00:05;;;;;;;31.08;7.20;;;15.70;99.90;;;;;;5112661;28;20091;-63
2022/03/27 09:02:30;;;;;;;30.63;7.10;;;16.40;99.90;;;;;;5112469;28;20047;-63
2022/03/27 09:04:57;;;;;;;22.77;6.20;;;17.10;99.90;;;;;;5111618;28;20043;-62
2022/03/27 09:07:24;;;;;;;26.67;7.13;;;17.10;99.90;;;;;;5112358;28;20090;-63
2022/03/27 09:09:51;;;;;;;30.05;7.35;;;17.10;99.80;;;;;;5111752;28;20454;-63
2022/03/27 09:12:19;;;;;;;22.23;6.13;;;17.20;99.60;;;;;;5093951;28;20374;-62
2022/03/27 09:14:45;;;;;;;22.00;6.13;;;17.20;98.90;;;;;;5112283;28;20044;-62
2022/03/27 09:17:12;;;;;;;29.63;7.93;;;17.50;99.90;;;;;;5112243;28;20054;-62
2022/03/27 09:19:45;;;;;;;22.50;6.55;;;17.20;98.60;;;;;;5112228;28;20104;-62
2022/03/27 09:22:31;;;;;;;26.52;6.50;;;17.20;98.50;;;;;;5112659;28;20095;-62
2022/03/27 09:25:05;;;;;;;25.45;6.82;;;17.20;98.90;;;;;;5111839;28;20097;-62
2022/03/27 09:27:36;;;;;;;24.88;7.20;;;16.60;99.00;;;;;;5112376;28;20040;-61
2022/03/27 09:30:08;;;;;;;23.30;5.80;;;15.80;99.90;;;;;;5112276;28;20118;-61
2022/03/27 09:32:36;;;;;;;32.72;7.70;;;15.30;99.90;;;;;;5112432;28;20054;-60
2022/03/27 09:35:09;;;;;;;28.77;7.13;;;14.90;99.90;;;;;;5111643;28;20493;-61
2022/03/27 09:37:39;;;;;;;30.03;6.60;;;14.30;99.90;;;;;;5093978;28;20051;-62
2022/03/27 09:40:08;;;;;;;26.90;6.90;;;14.00;99.90;;;;;;5111501;28;20278;-61
2022/03/27 09:42:38;;;;;;;28.13;6.38;;;13.70;99.90;;;;;;5112088;28;20051;-60
2022/03/27 09:45:24;;;;;;;30.67;6.82;;;13.50;99.90;;;;;;5094040;28;20048;-60
2022/03/27 09:47:55;;;;;;;24.58;6.47;;;13.50;99.90;;;;;;5111623;28;20047;-61
2022/03/27 09:50:38;;;;;;;32.30;7.55;;;13.50;99.90;;;;;;5111989;28;20040;-61
2022/03/27 09:53:27;;;;;;;23.92;6.80;;;13.30;99.90;;;;;;5093726;28;20051;-61
2022/03/27 09:55:59;;;;;;;27.60;6.72;;;13.30;99.90;;;;;;5111220;28;20035;-60
2022/03/27 09:58:40;;;;;;;26.83;6.75;;;13.30;99.90;;;;;;5093461;28;20097;-60
2022/03/27 10:01:17;;;;;;;23.33;6.45;;;13.30;99.90;;;;;;5111605;28;20142;-60
2022/03/27 10:04:03;;;;;;;29.85;6.90;;;13.30;99.90;;;;;;5111393;28;20101;-61
2022/03/27 10:06:36;;;;;;;26.40;6.10;;;13.30;99.90;;;;;;5111728;28;20079;-60
2022/03/27 10:09:03;;;;;;;27.85;6.15;;;13.30;99.90;;;;;;5111474;28;20073;-60
2022/03/27 10:11:29;;;;;;;23.92;5.72;;;13.30;99.90;;;;;;5093804;28;20069;-60
2022/03/27 10:13:56;;;;;;;21.40;6.10;;;13.30;99.90;;;;;;5110907;28;20131;-61
2022/03/27 10:16:30;;;;;;;24.70;6.05;;;13.30;99.90;;;;;;5111716;28;20040;-61
2022/03/27 10:19:10;;;;;;;24.92;6.45;;;13.30;99.90;;;;;;5111213;28;20134;-61
2022/03/27 10:21:36;;;;;;;24.85;6.35;;;13.40;99.90;;;;;;5111430;28;20039;-61
2022/03/27 10:24:13;;;;;;;23.02;6.05;;;13.60;99.90;;;;;;5110983;28;20141;-62
2022/03/27 10:26:40;;;;;;;24.73;6.35;;;13.40;99.90;;;;;;5093390;28;20060;-61
2022/03/27 10:29:08;;;;;;;27.15;6.10;;;13.30;99.90;;;;;;5076211;28;20397;-62
2022/03/27 10:31:34;;;;;;;29.00;6.45;;;13.30;99.90;;;;;;5111376;28;20047;-60
2022/03/27 10:34:02;;;;;;;25.17;6.00;;;13.40;99.90;;;;;;5111038;28;20052;-61
2022/03/27 10:36:36;;;;;;;23.50;5.20;;;13.40;99.90;;;;;;5093126;28;20131;-61
2022/03/27 10:39:05;;;;;;;;;;;13.50;99.90;;;;;;5111312;28;20070;-61
2022/03/27 10:42:00;;;;;;;21.85;6.00;;;13.60;99.90;;;;;;5111018;28;20229;-61
2022/03/27 10:44:38;;;;;;;21.38;5.03;;;13.60;99.90;;;;;;5110575;28;20044;-60
2022/03/27 10:47:14;;;;;;;23.85;6.35;;;13.60;99.90;;;;;;5110541;28;20055;-60
2022/03/27 10:50:08;;;;;;;25.02;6.55;;;13.60;99.90;;;;;;5092838;28;20120;-61
2022/03/27 10:52:36;;;;;;;21.45;5.28;;;13.60;99.90;;;;;;5115016;28;20062;-61
2022/03/27 10:55:34;;;;;;;19.90;5.43;;;13.70;99.90;;;;;;5096939;28;20365;-61
2022/03/27 10:57:59;;;;;;;24.73;5.55;;;13.70;99.90;;;;;;5114633;28;20469;-61
2022/03/27 11:00:43;;;;;;;20.48;5.15;;;13.70;99.90;;;;;;5115008;28;20054;-60
2022/03/27 11:03:09;;;;;;;24.45;5.68;;;13.60;99.90;;;;;;5114538;28;20527;-61
2022/03/27 11:05:35;;;;;;;21.85;4.95;;;13.50;99.90;;;;;;5115035;28;20075;-60
2022/03/27 11:08:19;;;;;;;20.92;5.18;;;13.40;99.90;;;;;;5096459;28;20043;-61
2022/03/27 11:10:49;;;;;;;19.30;4.50;;;13.40;99.90;;;;;;5096458;28;20075;-62
2022/03/27 11:13:30;;;;;;;21.83;5.03;;;13.50;99.90;;;;;;5092231;28;20060;-59
2022/03/27 11:16:04;;;;;;;21.27;4.45;;;13.50;99.90;;;;;;5094065;28;20044;-61
2022/03/27 11:18:39;;;;;;;18.00;4.40;;;13.40;99.90;;;;;;5093891;28;20044;-60
2022/03/27 11:21:07;;;;;;;;;;;13.50;99.90;;;;;;5093982;28;20087;-61
2022/03/27 11:23:38;;;;;;;15.10;4.10;;;13.60;99.90;;;;;;5092569;28;19928;-61
2022/03/27 11:26:27;;;;;;;17.00;3.85;;;13.70;99.00;;;;;;5092013;28;20435;-61
2022/03/27 11:29:18;;;;;;;16.92;4.15;;;13.70;96.80;;;;;;5093461;28;20187;-61
2022/03/27 11:31:44;;;;;;;16.63;4.05;;;13.70;97.30;;;;;;5092454;28;20051;-63
2022/03/27 11:34:14;;;;;;;18.17;4.50;;;13.70;96.90;;;;;;5093109;28;20055;-62
2022/03/27 11:36:45;;;;;;;13.43;4.20;;;13.70;95.50;;;;;;5093999;28;20083;-62
2022/03/27 11:39:29;;;;;;;15.20;4.07;;;13.70;96.10;;;;;;5092208;28;20143;-62
2022/03/27 11:42:28;;;;;;;12.82;4.00;;;13.90;94.00;;;;;;5092650;28;20512;-63
2022/03/27 11:45:08;;;;;;;14.80;4.22;;;14.10;93.80;;;;;;5092390;28;20052;-63
2022/03/27 11:47:40;;;;;;;17.60;4.38;;;14.10;95.90;;;;;;5092385;28;20048;-62
2022/03/27 11:50:07;;;;;;;12.63;3.55;;;14.30;95.20;;;;;;5093059;28;20130;-62
2022/03/27 11:52:34;;;;;;;11.55;3.60;;;14.30;94.20;;;;;;5093370;28;20506;-63
2022/03/27 11:55:11;;;;;;;19.42;4.35;;;14.40;93.30;;;;;;5092116;28;20036;-66
2022/03/27 11:57:48;;;;;;;20.30;4.55;;;14.40;93.70;;;;;;5093896;28;20152;-62
2022/03/27 12:00:15;;;;;;;14.30;3.78;;;14.50;94.10;;;;;;5091815;28;20055;-62
2022/03/27 12:02:44;;;;;;;14.30;3.88;;;14.50;92.50;;;;;;5092950;28;20040;-63
2022/03/27 12:05:12;;;;;;;15.10;3.90;;;14.50;92.50;;;;;;5091903;28;20048;-62
2022/03/27 12:07:57;;;;;;;15.82;4.35;;;14.50;92.70;;;;;;5093420;28;20051;-62
2022/03/27 12:10:24;;;;;;;12.60;4.05;;;14.50;93.40;;;;;;5093014;28;20050;-63
2022/03/27 12:12:57;;;;;;;16.45;3.47;;;14.50;93.00;;;;;;5099722;28;20051;-62
2022/03/27 12:15:35;;;;;;;14.38;3.75;;;14.40;93.20;;;;;;5113150;28;20180;-62
2022/03/27 12:18:02;;;;;;;16.60;4.05;;;14.30;93.10;;;;;;5095695;28;20043;-62
2022/03/27 12:20:28;;;;;;;15.75;3.78;;;14.30;93.20;;;;;;5113485;28;20043;-62
2022/03/27 12:22:53;;;;;;;13.05;3.80;;;14.30;93.00;;;;;;5095186;28;20547;-63
2022/03/27 12:25:25;;;;;;;12.40;2.88;;;14.40;92.70;;;;;;5113116;28;20046;-61
2022/03/27 12:30:46;;;;;;;14.77;3.50;;;14.30;92.10;;;;;;5095329;28;20052;-60
2022/03/27 12:33:13;;;;;;;13.02;3.13;;;14.40;92.70;;;;;;5112877;28;20043;-61
2022/03/27 12:35:39;;;;;;;13.05;3.92;;;14.40;92.40;;;;;;5078364;28;20446;-63
2022/03/27 12:38:05;;;;;;;14.57;3.65;;;14.40;92.50;;;;;;5078165;28;20469;-65
2022/03/27 12:40:42;;;;;;;11.60;3.17;;;14.50;92.40;;;;;;5112938;28;20050;-61
2022/03/27 12:43:14;;;;;;;10.93;3.13;;;14.30;92.60;;;;;;5112314;28;20414;-65
2022/03/27 12:45:41;;;;;;;17.95;3.92;;;14.40;92.50;;;;;;5094422;28;20047;-63
2022/03/27 12:48:20;;;;;;;15.30;4.10;;;14.30;92.70;;;;;;5093943;28;20390;-65
2022/03/27 12:50:51;;;;;;;10.90;3.35;;;14.40;93.50;;;;;;5112625;28;20064;-62
2022/03/27 12:53:20;;;;;;;14.68;4.22;;;14.40;93.50;;;;;;5112139;28;20044;-61
2022/03/27 12:55:54;;;;;;;12.50;3.38;;;14.40;93.60;;;;;;5112918;28;20415;-61
2022/03/27 12:58:32;;;;;;;16.00;3.78;;;14.40;94.00;;;;;;5112521;28;20044;-61
2022/03/27 13:01:18;;;;;;;17.90;4.15;;;14.40;94.10;;;;;;5112083;28;20620;-60